Nicholasville, KY (40340)

03:43 AM EDT del 29 Luglio 2016 (GMT -0400)
Miles Estates | | Change Station

Alt. 919 ft 37.87 °N, 84.57 °W | Updated 9 seconds ago

Clear
Sereno
70.9 °F
Sembra 70.9 °F
N
0.0
Vento Variabile Vento da SSO
Gusts 0.0 mph

Oggi
Massima -- | Minima -- °F
--% Possibilità di precip.
Ieri
Massima -- | Minima -- °F
Precip. -- in
Pressione 29.96 in
Visibilità 10.0 miglia
Nuvole Sereno
Punto di rugiada 70 °F
Umidità 97%
Piovosità 0.00 in
Spessore del manto nevoso Non disponibile.
6:39 AM 8:49 PM
Luna calante, 24% visible
METAR KDVK 290735Z AUTO 20004KT 10SM CLR 21/20 A2996 RMK AO2
Pressione 29.96 in
Visibilità 10.0 miglia
Nuvole Sereno
Punto di rugiada 70 °F
Umidità 97%
Piovosità 0.00 in
Spessore del manto nevoso Non disponibile.
6:39 AM 8:49 PM
Luna calante, 24% visible
METAR KDVK 290735Z AUTO 20004KT 10SM CLR 21/20 A2996 RMK AO2

10-Day Weather Forecast

Almanac

Astronomia

Jul. 29, 2016 Alba Tramonto
Ora attuale
Crepuscolo civile
Crepuscolo nautico
Crepuscolo astronomico
Luna
Estensione della luce visibile
Lunghezza del giorno
Tomorrow will be .
, % of the Moon is Illuminated

Gli estremi di oggi

State Highs State Lows

Community

WunderPhotos

Upload Photos

1,928,300 foto caricate!

WunderBlog® & News

Nearby

Qualità dell'aria

  Qualità dell'aria Indice AQ Inquinante
Not available.

Profondità neve

Stazione Profondità Altitudine

Attività sismica

Città  Distanza Mag. Data & Ora
Minimo Magnitudo Mostrato è 2.5.

Temperature delle acque costiere

Località Temperatura

Stations

Stazioni meteo nelle vicinanze

Ubicazione della stazione Temp. Raffreddamento del vento Punto di rugiada Umidità Vento Precip. Alt. Aggiornato Tipo
                   

Watches & Warnings

There are currently no watches in effect.